Time;durP1;ratioP1;P1;durP2;ratioP2;P2;SDS_P1;SDS_P2;PMS_P1;PMS_P2;Temp;Humidity;BMP_temperature;BMP_pressure;BME280_temperature;BME280_humidity;BME280_pressure;Samples;Min_cycle;Max_cycle;Signal;HPM_P1;HPM_P2
2023/04/23 00:01:07;;;;;;;2.38;2.15;;;19.60;54.20;;;;;;5005172;28;20187;-70
2023/04/23 00:03:35;;;;;;;2.10;1.90;;;19.60;54.20;;;;;;4996434;28;20184;-69
2023/04/23 00:06:06;;;;;;;2.30;2.10;;;19.60;54.20;;;;;;5024310;28;20211;-69
2023/04/23 00:08:33;;;;;;;2.83;2.45;;;19.60;54.20;;;;;;5008433;28;20216;-70
2023/04/23 00:11:00;;;;;;;2.30;2.10;;;19.60;54.20;;;;;;5010426;28;20184;-70
2023/04/23 00:13:26;;;;;;;2.28;1.92;;;19.60;54.20;;;;;;5004687;28;20191;-69
2023/04/23 00:15:52;;;;;;;2.65;2.20;;;19.60;54.30;;;;;;5012652;28;20224;-69
2023/04/23 00:18:18;;;;;;;3.08;2.13;;;19.60;54.20;;;;;;5004707;28;20275;-69
2023/04/23 00:20:45;;;;;;;2.40;2.20;;;19.60;54.20;;;;;;5011866;28;20180;-69
2023/04/23 00:23:10;;;;;;;2.67;2.47;;;19.60;54.20;;;;;;5004242;28;20717;-70
2023/04/23 00:25:36;;;;;;;2.47;2.10;;;19.60;54.20;;;;;;5013262;28;20208;-70
2023/04/23 00:28:02;;;;;;;2.42;2.22;;;19.60;54.20;;;;;;4988351;28;20197;-69
2023/04/23 00:30:28;;;;;;;2.38;2.08;;;19.60;54.20;;;;;;5004326;28;20184;-70
2023/04/23 00:32:54;;;;;;;2.33;2.13;;;19.60;54.20;;;;;;4997007;28;20210;-69
2023/04/23 00:35:20;;;;;;;2.35;2.15;;;19.60;54.20;;;;;;4995776;28;20211;-69
2023/04/23 00:37:46;;;;;;;2.20;2.00;;;19.60;54.30;;;;;;5028968;28;20188;-70
2023/04/23 00:40:12;;;;;;;2.95;2.10;;;19.60;54.20;;;;;;4988460;28;20535;-68
2023/04/23 00:42:39;;;;;;;5.47;2.40;;;19.60;54.20;;;;;;5010659;28;20183;-69
2023/04/23 00:45:10;;;;;;;1.90;1.80;;;19.60;54.20;;;;;;5004247;28;20234;-69
2023/04/23 00:47:36;;;;;;;1.90;1.77;;;19.60;54.30;;;;;;5013387;28;20284;-69
2023/04/23 00:50:02;;;;;;;1.95;1.85;;;19.60;54.20;;;;;;4988213;28;20272;-69
2023/04/23 00:52:28;;;;;;;2.30;2.10;;;19.60;54.20;;;;;;5012094;28;20184;-69
2023/04/23 00:54:55;;;;;;;2.40;2.17;;;19.60;54.20;;;;;;5016406;28;20262;-69
2023/04/23 00:57:22;;;;;;;2.20;1.90;;;19.60;54.30;;;;;;4995831;28;20244;-70
2023/04/23 00:59:48;;;;;;;2.55;2.25;;;19.60;54.30;;;;;;5001028;28;20246;-70
2023/04/23 01:02:16;;;;;;;1.92;1.83;;;19.60;54.30;;;;;;4986292;28;20188;-70
2023/04/23 01:04:44;;;;;;;2.50;2.30;;;19.60;54.30;;;;;;5005472;28;20184;-70
2023/04/23 01:07:11;;;;;;;2.65;1.85;;;19.60;54.30;;;;;;4995421;28;20208;-69
2023/04/23 01:09:38;;;;;;;4.57;1.90;;;19.60;54.30;;;;;;4995779;28;20188;-69
2023/04/23 01:12:05;;;;;;;3.30;1.98;;;19.60;54.30;;;;;;4995429;28;20219;-69
2023/04/23 01:14:32;;;;;;;2.55;2.00;;;19.60;54.30;;;;;;5019662;28;20219;-70
2023/04/23 01:16:58;;;;;;;1.95;1.83;;;19.60;54.30;;;;;;5008466;28;20335;-69
2023/04/23 01:19:24;;;;;;;2.00;1.90;;;19.60;54.30;;;;;;5011911;28;20338;-70
2023/04/23 01:21:50;;;;;;;2.00;1.80;;;19.60;54.30;;;;;;5011682;28;20176;-69
2023/04/23 01:24:16;;;;;;;1.95;1.83;;;19.60;54.30;;;;;;5021384;28;20196;-69
2023/04/23 01:26:42;;;;;;;2.15;1.95;;;19.60;54.30;;;;;;4995114;28;20218;-69
2023/04/23 01:29:09;;;;;;;2.03;1.83;;;19.60;54.30;;;;;;4998385;28;20188;-69
2023/04/23 01:31:36;;;;;;;2.78;1.77;;;19.60;54.30;;;;;;5011130;28;20578;-70
2023/04/23 01:34:02;;;;;;;1.90;1.70;;;19.60;54.30;;;;;;5011147;28;20188;-69
2023/04/23 01:36:30;;;;;;;1.80;1.70;;;19.60;54.30;;;;;;4995067;28;20219;-69
2023/04/23 01:38:56;;;;;;;1.95;1.75;;;19.60;54.30;;;;;;5011359;28;20381;-69
2023/04/23 01:41:21;;;;;;;2.25;1.77;;;19.60;54.30;;;;;;5000913;28;20189;-69
2023/04/23 01:43:47;;;;;;;2.08;1.88;;;19.60;54.40;;;;;;4997153;28;20721;-70
2023/04/23 01:46:13;;;;;;;3.50;2.35;;;19.60;54.40;;;;;;4985627;28;20235;-70
2023/04/23 01:48:40;;;;;;;3.95;1.83;;;19.50;54.30;;;;;;4988084;28;20194;-69
2023/04/23 01:51:05;;;;;;;1.92;1.58;;;19.50;54.30;;;;;;5011146;28;20322;-69
2023/04/23 01:53:31;;;;;;;1.95;1.75;;;19.50;54.30;;;;;;4999792;28;20272;-70
2023/04/23 01:56:00;;;;;;;2.03;1.90;;;19.50;54.30;;;;;;5023094;28;20219;-69
2023/04/23 01:58:25;;;;;;;2.00;1.90;;;19.60;54.40;;;;;;5008742;28;20195;-69
2023/04/23 02:00:52;;;;;;;2.97;2.10;;;19.50;54.30;;;;;;5015996;28;20185;-69
2023/04/23 02:03:18;;;;;;;5.32;2.00;;;19.50;54.40;;;;;;5007486;28;20220;-69
2023/04/23 02:05:44;;;;;;;2.00;1.80;;;19.50;54.40;;;;;;4997936;28;20207;-69
2023/04/23 02:08:11;;;;;;;1.77;1.67;;;19.50;54.40;;;;;;5010942;28;20188;-69
2023/04/23 02:10:36;;;;;;;2.03;1.83;;;19.50;54.40;;;;;;5005420;28;20184;-69
2023/04/23 02:13:03;;;;;;;2.75;2.00;;;19.50;54.40;;;;;;5003029;28;20184;-69
2023/04/23 02:15:29;;;;;;;1.65;1.55;;;19.60;54.50;;;;;;5010907;28;20707;-69
2023/04/23 02:17:55;;;;;;;2.25;1.63;;;19.60;54.50;;;;;;4988694;28;20185;-69
2023/04/23 02:20:21;;;;;;;1.95;1.85;;;19.50;54.40;;;;;;5007586;28;20191;-70
2023/04/23 02:22:48;;;;;;;1.92;1.83;;;19.50;54.40;;;;;;4988432;28;20180;-69
2023/04/23 02:25:16;;;;;;;1.80;1.70;;;19.50;54.40;;;;;;5008345;28;20196;-69
2023/04/23 02:27:43;;;;;;;2.00;1.90;;;19.50;54.40;;;;;;4994609;28;20223;-69
2023/04/23 02:30:10;;;;;;;1.80;1.70;;;19.50;54.40;;;;;;4986594;28;20293;-69
2023/04/23 02:32:37;;;;;;;1.80;1.70;;;19.50;54.40;;;;;;5002693;28;20192;-69
2023/04/23 02:35:05;;;;;;;1.70;1.50;;;19.50;54.50;;;;;;5010845;28;20698;-69
2023/04/23 02:37:35;;;;;;;2.00;1.67;;;19.50;54.40;;;;;;5002765;28;20200;-69
2023/04/23 02:40:05;;;;;;;1.63;1.52;;;19.50;54.40;;;;;;5010620;28;20547;-69
2023/04/23 02:42:31;;;;;;;1.75;1.63;;;19.50;54.40;;;;;;5011610;28;20192;-69
2023/04/23 02:44:57;;;;;;;1.42;1.33;;;19.50;54.50;;;;;;5011110;28;20680;-69
2023/04/23 02:47:22;;;;;;;2.05;1.83;;;19.50;54.50;;;;;;5011312;28;20217;-69
2023/04/23 02:49:48;;;;;;;2.17;1.95;;;19.50;54.50;;;;;;5009690;28;20195;-69
2023/04/23 02:52:14;;;;;;;1.70;1.60;;;19.50;54.50;;;;;;5014041;28;20675;-69
2023/04/23 02:54:40;;;;;;;2.45;1.90;;;19.50;54.50;;;;;;5022618;28;20279;-69
2023/04/23 02:57:05;;;;;;;1.73;1.63;;;19.50;54.50;;;;;;5014302;28;20223;-70
2023/04/23 02:59:32;;;;;;;1.80;1.70;;;19.50;54.60;;;;;;5006326;28;20233;-69
2023/04/23 03:01:57;;;;;;;1.50;1.40;;;19.50;54.50;;;;;;5014407;28;20271;-69
2023/04/23 03:04:23;;;;;;;2.13;1.70;;;19.50;54.60;;;;;;5014190;28;20192;-69
2023/04/23 03:06:49;;;;;;;2.28;1.38;;;19.50;54.60;;;;;;5013909;28;20208;-69
2023/04/23 03:09:15;;;;;;;1.60;1.50;;;19.50;54.60;;;;;;5014112;28;20218;-69
2023/04/23 03:11:41;;;;;;;1.77;1.52;;;19.50;54.60;;;;;;5009803;28;20217;-69
2023/04/23 03:14:10;;;;;;;1.58;1.48;;;19.50;54.60;;;;;;4994543;28;20192;-69
2023/04/23 03:16:36;;;;;;;1.73;1.50;;;19.50;54.60;;;;;;5013887;28;20216;-69
2023/04/23 03:19:02;;;;;;;4.10;1.88;;;19.50;54.60;;;;;;5013858;28;20187;-69
2023/04/23 03:21:28;;;;;;;2.60;1.88;;;19.50;54.60;;;;;;4997561;28;20576;-69
2023/04/23 03:23:53;;;;;;;2.72;1.90;;;19.50;54.60;;;;;;5011060;28;20192;-69
2023/04/23 03:26:19;;;;;;;1.83;1.67;;;19.50;54.60;;;;;;4996434;28;20705;-69
2023/04/23 03:28:45;;;;;;;2.55;1.88;;;19.50;54.60;;;;;;4982789;28;20214;-68
2023/04/23 03:31:11;;;;;;;1.80;1.70;;;19.50;54.60;;;;;;5013529;28;20188;-70
2023/04/23 03:33:37;;;;;;;2.38;1.67;;;19.50;54.60;;;;;;4997395;28;20190;-69
2023/04/23 03:36:04;;;;;;;1.70;1.50;;;19.50;54.70;;;;;;4998578;28;20208;-69
2023/04/23 03:38:31;;;;;;;1.80;1.70;;;19.50;54.70;;;;;;5009300;28;20564;-69
2023/04/23 03:40:58;;;;;;;1.90;1.60;;;19.50;54.70;;;;;;4992162;28;20180;-69
2023/04/23 03:43:24;;;;;;;1.80;1.60;;;19.50;54.70;;;;;;5005120;28;20188;-69
2023/04/23 03:46:02;;;;;;;1.60;1.50;;;19.50;54.70;;;;;;5014706;28;20291;-69
2023/04/23 03:48:31;;;;;;;1.98;1.60;;;19.50;54.70;;;;;;5013521;28;20249;-69
2023/04/23 03:50:59;;;;;;;1.40;1.25;;;19.50;54.70;;;;;;5029626;28;20267;-68
2023/04/23 03:53:47;;;;;;;1.63;1.52;;;19.50;54.70;;;;;;5012805;28;20215;-69
2023/04/23 03:56:32;;;;;;;1.67;1.58;;;19.50;54.70;;;;;;4999580;28;20212;-69
2023/04/23 03:59:18;;;;;;;1.40;1.30;;;19.40;54.60;;;;;;5012851;28;20250;-68
2023/04/23 04:01:49;;;;;;;1.58;1.27;;;19.40;54.60;;;;;;5013817;28;20195;-69
2023/04/23 04:04:15;;;;;;;1.40;1.30;;;19.50;54.70;;;;;;4996566;28;20195;-69
2023/04/23 04:06:40;;;;;;;2.03;1.65;;;19.50;54.70;;;;;;5012621;28;20191;-69
2023/04/23 04:09:07;;;;;;;1.67;1.58;;;19.50;54.70;;;;;;4997013;28;20702;-69
2023/04/23 04:11:33;;;;;;;1.60;1.35;;;19.40;54.60;;;;;;4980808;28;20181;-69
2023/04/23 04:13:59;;;;;;;1.70;1.60;;;19.40;54.60;;;;;;5001888;28;20198;-69
2023/04/23 04:16:24;;;;;;;1.50;1.40;;;19.50;54.70;;;;;;5012611;28;20216;-69
2023/04/23 04:18:50;;;;;;;1.95;1.30;;;19.40;54.60;;;;;;5003435;28;20200;-69
2023/04/23 04:21:17;;;;;;;1.42;1.33;;;19.40;54.60;;;;;;5015813;28;20200;-69
2023/04/23 04:23:44;;;;;;;1.42;1.33;;;19.40;54.60;;;;;;4980814;28;20188;-69
2023/04/23 04:26:10;;;;;;;1.40;1.30;;;19.40;54.70;;;;;;5013830;28;20294;-69
2023/04/23 04:28:36;;;;;;;1.40;1.30;;;19.40;54.60;;;;;;5029302;28;20192;-69
2023/04/23 04:31:07;;;;;;;1.83;1.23;;;19.40;54.60;;;;;;5013043;28;20188;-69
2023/04/23 04:33:34;;;;;;;1.70;1.60;;;19.40;54.60;;;;;;5012478;28;20226;-69
2023/04/23 04:36:00;;;;;;;1.23;1.13;;;19.40;54.60;;;;;;5012281;28;20224;-69
2023/04/23 04:38:27;;;;;;;1.45;1.35;;;19.40;54.60;;;;;;5006456;28;20300;-69
2023/04/23 04:41:01;;;;;;;1.42;1.33;;;19.40;54.70;;;;;;5012771;28;20176;-69
2023/04/23 04:43:27;;;;;;;1.50;1.40;;;19.40;54.60;;;;;;5012392;28;20246;-68
2023/04/23 04:45:52;;;;;;;1.33;1.27;;;19.40;54.70;;;;;;5010758;28;20687;-68
2023/04/23 04:48:18;;;;;;;1.40;1.30;;;19.40;54.70;;;;;;5023480;28;20356;-69
2023/04/23 04:50:45;;;;;;;1.15;1.15;;;19.50;54.80;;;;;;4995966;28;20238;-69
2023/04/23 04:53:11;;;;;;;1.45;1.35;;;19.40;54.70;;;;;;4995613;28;20185;-69
2023/04/23 04:55:37;;;;;;;1.38;1.27;;;19.40;54.70;;;;;;5018154;28;20223;-69
2023/04/23 04:58:02;;;;;;;1.45;1.35;;;19.40;54.70;;;;;;4976523;28;20193;-69
2023/04/23 05:00:29;;;;;;;1.30;1.15;;;19.40;54.70;;;;;;4996202;28;20255;-69
2023/04/23 05:02:56;;;;;;;1.63;1.30;;;19.40;54.70;;;;;;5011927;28;20187;-69
2023/04/23 05:05:25;;;;;;;1.73;1.60;;;19.50;54.80;;;;;;5011699;28;20232;-69
2023/04/23 05:07:53;;;;;;;1.40;1.30;;;19.40;54.70;;;;;;4995683;28;20188;-69
2023/04/23 05:10:20;;;;;;;1.40;1.30;;;19.40;54.70;;;;;;5011845;28;20295;-69
2023/04/23 05:12:46;;;;;;;1.50;1.40;;;19.40;54.70;;;;;;5016337;28;20196;-70
2023/04/23 05:15:13;;;;;;;1.50;1.40;;;19.40;54.80;;;;;;5008671;28;20671;-70
2023/04/23 05:17:40;;;;;;;1.35;1.30;;;19.40;54.80;;;;;;5009310;28;20620;-70
2023/04/23 05:20:09;;;;;;;1.08;1.02;;;19.40;54.80;;;;;;4998710;28;20219;-70
2023/04/23 05:22:37;;;;;;;1.15;1.05;;;19.50;54.80;;;;;;5011883;28;20180;-69
2023/04/23 05:25:04;;;;;;;1.27;1.17;;;19.40;54.80;;;;;;5000680;28;20250;-70
2023/04/23 05:27:30;;;;;;;1.63;1.52;;;19.40;54.80;;;;;;5012856;28;20203;-69
2023/04/23 05:29:56;;;;;;;1.20;1.17;;;19.40;54.80;;;;;;5012976;28;20570;-69
2023/04/23 05:32:22;;;;;;;1.20;1.15;;;19.40;54.80;;;;;;5003129;28;20200;-69
2023/04/23 05:34:48;;;;;;;1.50;1.40;;;19.40;54.80;;;;;;5003808;28;20292;-69
2023/04/23 05:37:13;;;;;;;1.20;1.10;;;19.40;54.80;;;;;;5010870;28;20216;-69
2023/04/23 05:39:39;;;;;;;1.40;1.30;;;19.40;54.80;;;;;;5011706;28;20207;-69
2023/04/23 05:42:05;;;;;;;1.95;1.23;;;19.40;54.80;;;;;;4995049;28;20180;-69
2023/04/23 05:44:30;;;;;;;1.30;1.20;;;19.40;54.80;;;;;;5011355;28;20200;-70
2023/04/23 05:46:56;;;;;;;1.10;1.10;;;19.40;54.90;;;;;;5018182;28;20230;-70
2023/04/23 05:49:22;;;;;;;1.38;1.27;;;19.40;54.90;;;;;;5011362;28;20182;-70
2023/04/23 05:51:48;;;;;;;1.30;1.20;;;19.40;54.90;;;;;;5011466;28;20212;-70
2023/04/23 05:54:14;;;;;;;1.00;1.00;;;19.40;54.80;;;;;;4991779;28;20288;-69
2023/04/23 05:56:40;;;;;;;1.35;1.25;;;19.40;54.80;;;;;;5026987;28;20291;-69
2023/04/23 05:59:05;;;;;;;1.40;1.30;;;19.40;54.80;;;;;;5006601;28;20192;-69
2023/04/23 06:01:31;;;;;;;1.33;1.20;;;19.40;54.80;;;;;;4999002;28;20207;-69
2023/04/23 06:03:57;;;;;;;1.30;0.90;;;19.40;54.80;;;;;;4995119;28;20184;-69
2023/04/23 06:06:23;;;;;;;1.20;1.10;;;19.40;54.80;;;;;;4998797;28;20244;-70
2023/04/23 06:08:49;;;;;;;1.20;1.10;;;19.40;54.80;;;;;;4995220;28;20189;-70
2023/04/23 06:11:16;;;;;;;1.25;1.15;;;19.40;54.80;;;;;;4995234;28;20238;-69
2023/04/23 06:13:41;;;;;;;1.77;1.50;;;19.40;54.80;;;;;;5000355;28;20197;-69
2023/04/23 06:16:08;;;;;;;1.48;1.30;;;19.40;54.80;;;;;;4992648;28;20229;-70
2023/04/23 06:18:35;;;;;;;1.17;1.17;;;19.40;54.80;;;;;;5000825;28;20181;-70
2023/04/23 06:21:04;;;;;;;1.10;1.00;;;19.40;54.80;;;;;;5010994;28;20193;-69
2023/04/23 06:23:31;;;;;;;1.30;1.20;;;19.40;54.80;;;;;;5012647;28;20199;-69
2023/04/23 06:25:57;;;;;;;1.50;1.30;;;19.40;54.80;;;;;;5011668;28;20207;-70
2023/04/23 06:28:23;;;;;;;1.30;1.20;;;19.40;54.90;;;;;;5003924;28;20195;-70
2023/04/23 06:31:08;;;;;;;1.20;1.10;;;19.40;54.80;;;;;;5006721;28;20694;-69
2023/04/23 06:33:38;;;;;;;1.00;1.00;;;19.40;54.80;;;;;;5014960;28;20176;-69
2023/04/23 06:36:09;;;;;;;1.25;1.20;;;19.40;54.80;;;;;;5006057;28;20252;-70
2023/04/23 06:38:36;;;;;;;1.40;1.33;;;19.40;54.80;;;;;;5013026;28;20191;-69
2023/04/23 06:41:03;;;;;;;1.30;1.20;;;19.40;54.80;;;;;;4989833;28;20168;-70
2023/04/23 06:43:29;;;;;;;1.25;1.15;;;19.40;54.80;;;;;;5013989;28;20338;-70
2023/04/23 06:46:27;;;;;;;1.27;1.15;;;19.40;54.80;;;;;;4998781;28;20246;-69
2023/04/23 06:48:53;;;;;;;1.20;1.20;;;19.40;54.80;;;;;;5014858;28;20247;-70
2023/04/23 06:51:19;;;;;;;1.10;1.10;;;19.50;54.90;;;;;;5030943;28;20188;-70
2023/04/23 06:53:46;;;;;;;1.08;1.08;;;19.40;54.90;;;;;;5014344;28;20200;-70
2023/04/23 06:56:12;;;;;;;1.10;1.10;;;19.40;54.90;;;;;;4992893;28;20315;-70
2023/04/23 06:58:38;;;;;;;1.42;1.33;;;19.40;54.90;;;;;;5011376;28;20181;-70
2023/04/23 07:01:12;;;;;;;1.10;1.10;;;19.40;54.90;;;;;;5010343;28;20274;-69
2023/04/23 07:03:38;;;;;;;1.30;1.20;;;19.50;55.00;;;;;;5005032;28;20319;-70
2023/04/23 07:06:04;;;;;;;1.67;1.30;;;19.40;54.90;;;;;;4991646;28;20238;-70
2023/04/23 07:08:31;;;;;;;1.40;1.30;;;19.50;54.90;;;;;;5000698;28;20196;-69
2023/04/23 07:10:57;;;;;;;1.40;1.17;;;19.40;54.90;;;;;;5013101;28;20200;-69
2023/04/23 07:13:23;;;;;;;1.33;1.20;;;19.40;54.90;;;;;;5011997;28;20221;-69
2023/04/23 07:15:49;;;;;;;1.60;1.48;;;19.40;54.90;;;;;;5013708;28;20227;-69
2023/04/23 07:18:15;;;;;;;1.27;1.20;;;19.50;55.00;;;;;;5015166;28;20203;-70
2023/04/23 07:20:41;;;;;;;1.20;1.10;;;19.40;54.90;;;;;;5013770;28;20187;-70
2023/04/23 07:23:07;;;;;;;1.30;1.20;;;19.40;54.90;;;;;;5000749;28;20180;-70
2023/04/23 07:25:32;;;;;;;1.60;1.50;;;19.40;54.90;;;;;;5013815;28;20235;-70
2023/04/23 07:27:58;;;;;;;1.83;1.67;;;19.40;54.90;;;;;;5013770;28;20215;-70
2023/04/23 07:30:26;;;;;;;1.50;1.40;;;19.40;54.90;;;;;;4980953;28;20647;-70
2023/04/23 07:32:52;;;;;;;1.40;1.30;;;19.40;55.50;;;;;;5008262;28;20192;-69
2023/04/23 07:35:18;;;;;;;1.50;1.40;;;19.40;54.90;;;;;;4993216;28;20239;-70
2023/04/23 07:37:44;;;;;;;1.40;1.10;;;19.50;55.10;;;;;;5002801;28;20202;-69
2023/04/23 07:40:10;;;;;;;1.33;1.23;;;19.50;55.10;;;;;;5002548;28;20227;-70
2023/04/23 07:42:36;;;;;;;1.60;1.50;;;19.40;54.90;;;;;;4996054;28;20176;-69
2023/04/23 07:45:03;;;;;;;2.55;1.50;;;19.50;54.90;;;;;;5013370;28;20243;-70
2023/04/23 07:47:29;;;;;;;2.25;1.52;;;19.50;54.90;;;;;;5000285;28;20215;-69
2023/04/23 07:49:54;;;;;;;1.60;1.50;;;19.60;55.40;;;;;;5013581;28;20263;-69
2023/04/23 07:52:20;;;;;;;1.48;1.35;;;19.60;54.80;;;;;;4997421;28;20191;-70
2023/04/23 07:54:46;;;;;;;1.60;1.50;;;19.60;55.00;;;;;;5011508;28;20216;-70
2023/04/23 07:57:11;;;;;;;3.40;1.58;;;19.60;55.00;;;;;;5008297;28;20213;-71
2023/04/23 07:59:40;;;;;;;1.52;1.42;;;19.60;55.50;;;;;;5011323;28;20187;-70
2023/04/23 08:02:06;;;;;;;1.98;1.70;;;19.60;55.00;;;;;;5009262;28;20192;-69
2023/04/23 08:04:31;;;;;;;2.45;1.80;;;19.50;55.00;;;;;;4993467;28;20188;-70
2023/04/23 08:06:57;;;;;;;2.60;1.40;;;19.50;55.00;;;;;;4993497;28;20263;-70
2023/04/23 08:09:23;;;;;;;1.55;1.45;;;19.60;55.10;;;;;;5000911;28;20187;-70
2023/04/23 08:11:49;;;;;;;1.65;1.55;;;19.50;55.00;;;;;;5029393;28;20184;-70
2023/04/23 08:14:16;;;;;;;1.88;1.50;;;19.50;55.00;;;;;;5012785;28;20275;-70
2023/04/23 08:16:42;;;;;;;1.40;1.30;;;19.50;55.10;;;;;;5004203;28;20273;-70
2023/04/23 08:19:08;;;;;;;1.52;1.42;;;19.60;55.20;;;;;;5006664;28;20198;-69
2023/04/23 08:21:34;;;;;;;3.03;1.60;;;19.50;55.10;;;;;;5001032;28;20281;-70
2023/04/23 08:24:01;;;;;;;1.70;1.60;;;19.50;55.10;;;;;;4993096;28;20189;-70
2023/04/23 08:26:27;;;;;;;1.50;1.40;;;19.50;55.60;;;;;;4993097;28;20219;-70
2023/04/23 08:28:53;;;;;;;3.75;1.80;;;19.50;55.10;;;;;;4992917;28;20188;-70
2023/04/23 08:31:19;;;;;;;1.95;1.50;;;19.50;55.10;;;;;;5024370;28;20188;-69
2023/04/23 08:33:45;;;;;;;1.70;1.60;;;19.50;55.10;;;;;;5013703;28;20184;-70
2023/04/23 08:36:10;;;;;;;1.55;1.45;;;19.50;55.10;;;;;;5012762;28;20450;-70
2023/04/23 08:38:36;;;;;;;1.40;1.30;;;19.50;55.20;;;;;;5012713;28;20184;-70
2023/04/23 08:41:06;;;;;;;1.40;1.30;;;19.50;55.20;;;;;;4995332;28;20188;-70
2023/04/23 08:44:16;;;;;;;3.50;1.60;;;19.50;55.20;;;;;;4995666;28;20187;-69
2023/04/23 08:46:44;;;;;;;1.58;1.48;;;19.50;55.10;;;;;;4951413;28;20209;-69
2023/04/23 08:49:17;;;;;;;1.90;1.80;;;19.50;55.10;;;;;;5007033;28;20653;-69
2023/04/23 08:51:48;;;;;;;1.67;1.58;;;19.50;55.10;;;;;;5002649;28;20235;-70
2023/04/23 08:54:24;;;;;;;1.50;1.40;;;19.50;55.10;;;;;;5000011;28;20232;-69
2023/04/23 08:56:50;;;;;;;1.20;1.20;;;19.50;55.10;;;;;;5001499;28;20255;-70
2023/04/23 08:59:18;;;;;;;2.22;1.60;;;19.50;55.00;;;;;;4992524;28;20185;-69
2023/04/23 09:01:45;;;;;;;1.65;1.55;;;19.60;55.10;;;;;;5010407;28;20220;-70
2023/04/23 09:04:15;;;;;;;1.50;1.40;;;19.60;55.10;;;;;;5005631;28;20192;-70
2023/04/23 09:06:43;;;;;;;1.67;1.55;;;19.60;55.10;;;;;;5014418;28;20238;-70
2023/04/23 09:09:08;;;;;;;1.67;1.58;;;19.60;55.10;;;;;;5018743;28;20191;-70
2023/04/23 09:11:36;;;;;;;1.50;1.40;;;19.60;55.10;;;;;;5012156;28;20659;-70
2023/04/23 09:14:03;;;;;;;1.52;1.40;;;19.60;55.00;;;;;;5004314;28;20656;-69
2023/04/23 09:16:29;;;;;;;1.50;1.40;;;19.60;55.00;;;;;;5008578;28;20295;-69
2023/04/23 09:18:55;;;;;;;1.60;1.50;;;19.60;55.00;;;;;;4992235;28;20688;-69
2023/04/23 09:21:21;;;;;;;1.65;1.52;;;19.60;55.00;;;;;;4992409;28;20188;-69
2023/04/23 09:23:51;;;;;;;2.00;1.60;;;19.60;55.10;;;;;;5003173;28;20594;-70
2023/04/23 09:26:21;;;;;;;1.67;1.50;;;19.60;55.00;;;;;;5003544;28;20227;-70
2023/04/23 09:28:50;;;;;;;1.50;1.40;;;19.60;55.00;;;;;;5003520;28;20197;-69
2023/04/23 09:31:23;;;;;;;1.92;1.40;;;19.60;55.00;;;;;;5021686;28;20326;-69
2023/04/23 09:33:53;;;;;;;1.40;1.30;;;19.60;55.00;;;;;;5011501;28;20184;-69
2023/04/23 09:36:23;;;;;;;2.13;1.55;;;19.60;55.00;;;;;;5011613;28;20311;-69
2023/04/23 09:38:49;;;;;;;1.73;1.40;;;19.60;55.00;;;;;;5014985;28;20184;-70
2023/04/23 09:41:27;;;;;;;1.73;1.63;;;19.60;55.00;;;;;;5011662;28;20184;-69
2023/04/23 09:43:56;;;;;;;1.90;1.80;;;19.60;55.00;;;;;;5012471;28;20176;-69
2023/04/23 09:46:33;;;;;;;1.30;1.20;;;19.70;55.00;;;;;;5008039;28;20200;-69
2023/04/23 09:49:02;;;;;;;2.47;1.40;;;19.60;55.00;;;;;;5011815;28;20219;-69
2023/04/23 09:51:29;;;;;;;2.40;1.50;;;19.60;55.00;;;;;;5010007;28;20701;-70
2023/04/23 09:53:55;;;;;;;1.40;1.30;;;19.60;55.00;;;;;;5002241;28;20334;-69
2023/04/23 09:56:21;;;;;;;1.52;1.40;;;19.60;55.00;;;;;;5011125;28;20303;-70
2023/04/23 09:58:47;;;;;;;1.60;1.50;;;19.60;54.90;;;;;;5011426;28;20337;-69
2023/04/23 10:01:14;;;;;;;1.60;1.50;;;19.60;55.00;;;;;;4996211;28;20196;-69
2023/04/23 10:03:43;;;;;;;1.40;1.30;;;19.70;55.00;;;;;;5011158;28;20183;-69
2023/04/23 10:06:14;;;;;;;1.42;1.33;;;19.70;55.00;;;;;;4991581;28;20295;-69
2023/04/23 10:08:40;;;;;;;1.30;1.20;;;19.60;54.90;;;;;;4987383;28;20206;-69
2023/04/23 10:11:06;;;;;;;1.73;1.23;;;19.60;55.00;;;;;;5004429;28;20189;-69
2023/04/23 10:13:36;;;;;;;2.25;1.40;;;19.70;55.00;;;;;;4995823;28;20183;-69
2023/04/23 10:16:04;;;;;;;1.60;1.50;;;19.70;55.00;;;;;;4993240;28;20216;-69
2023/04/23 10:18:32;;;;;;;2.88;1.27;;;19.70;55.00;;;;;;4995515;28;20242;-69
2023/04/23 10:21:00;;;;;;;1.60;1.38;;;19.70;55.00;;;;;;5015616;28;20185;-70
2023/04/23 10:23:26;;;;;;;2.22;1.20;;;19.70;55.00;;;;;;4994814;28;20176;-70
2023/04/23 10:25:54;;;;;;;1.50;1.40;;;19.70;55.00;;;;;;5009133;28;20215;-69
2023/04/23 10:28:27;;;;;;;1.40;1.30;;;19.70;55.00;;;;;;4991494;28;20235;-70
2023/04/23 10:30:53;;;;;;;1.65;1.40;;;19.70;55.00;;;;;;4992650;28;20170;-70
2023/04/23 10:33:19;;;;;;;1.42;1.38;;;19.70;55.00;;;;;;5005118;28;20250;-70
2023/04/23 10:35:47;;;;;;;1.38;1.27;;;19.70;55.00;;;;;;5012101;28;20251;-69
2023/04/23 10:38:14;;;;;;;1.50;1.40;;;19.70;55.20;;;;;;4994591;28;20180;-70
2023/04/23 10:40:47;;;;;;;1.52;1.42;;;19.70;55.20;;;;;;5010818;28;20214;-70
2023/04/23 10:43:14;;;;;;;1.38;1.27;;;19.70;55.10;;;;;;5010785;28;20200;-70
2023/04/23 10:45:40;;;;;;;1.35;1.25;;;19.70;55.10;;;;;;5027207;28;20212;-70
2023/04/23 10:48:07;;;;;;;1.20;1.10;;;19.70;55.00;;;;;;5008215;28;20222;-70
2023/04/23 10:50:35;;;;;;;1.30;1.20;;;19.70;55.20;;;;;;5010886;28;20192;-69
2023/04/23 10:53:02;;;;;;;1.30;1.20;;;19.70;55.10;;;;;;5011931;28;20212;-70
2023/04/23 10:55:30;;;;;;;1.55;1.45;;;19.70;55.20;;;;;;5010614;28;20223;-70
2023/04/23 10:58:03;;;;;;;2.25;1.48;;;19.60;55.00;;;;;;4994660;28;20257;-69
2023/04/23 11:00:44;;;;;;;1.10;1.10;;;19.70;55.20;;;;;;5010774;28;20191;-70
2023/04/23 11:03:41;;;;;;;1.33;1.23;;;19.70;55.20;;;;;;5010683;28;20176;-70
2023/04/23 11:06:08;;;;;;;1.30;1.20;;;19.70;55.10;;;;;;4994648;28;20213;-70
2023/04/23 11:08:37;;;;;;;1.35;1.25;;;19.70;55.10;;;;;;4982759;28;20224;-70
2023/04/23 11:11:08;;;;;;;1.35;1.25;;;19.70;55.10;;;;;;5012998;28;20229;-70
2023/04/23 11:13:34;;;;;;;1.40;1.30;;;19.70;55.20;;;;;;5001882;28;20279;-70
2023/04/23 11:16:22;;;;;;;1.20;1.10;;;19.70;55.20;;;;;;4997191;28;20227;-70
2023/04/23 11:19:03;;;;;;;1.40;1.30;;;19.70;55.60;;;;;;5030701;28;20286;-70
2023/04/23 11:21:55;;;;;;;1.52;1.30;;;19.70;55.30;;;;;;4997683;28;20245;-70
2023/04/23 11:24:32;;;;;;;2.30;1.30;;;19.70;55.20;;;;;;5003370;28;20219;-70
2023/04/23 11:27:00;;;;;;;1.10;1.10;;;19.70;55.20;;;;;;5030240;28;20219;-71
2023/04/23 11:29:27;;;;;;;1.20;1.10;;;19.70;55.20;;;;;;5015050;28;20180;-70
2023/04/23 11:31:54;;;;;;;1.33;1.23;;;19.70;55.20;;;;;;4997550;28;20194;-70
2023/04/23 11:34:21;;;;;;;2.65;1.20;;;19.70;55.80;;;;;;5013545;28;20192;-70
2023/04/23 11:36:55;;;;;;;6.43;1.27;;;19.70;55.10;;;;;;5013743;28;20239;-69
2023/04/23 11:39:24;;;;;;;2.50;1.10;;;19.70;55.20;;;;;;4994411;28;20193;-69
2023/04/23 11:41:51;;;;;;;1.35;1.25;;;19.70;55.20;;;;;;5003002;28;20212;-70
2023/04/23 11:44:19;;;;;;;2.92;1.27;;;19.70;55.20;;;;;;4978125;28;20192;-70
2023/04/23 11:46:47;;;;;;;1.35;1.17;;;19.70;55.20;;;;;;4999483;28;20295;-70
2023/04/23 11:49:14;;;;;;;4.43;1.17;;;19.70;55.20;;;;;;4999256;28;20687;-70
2023/04/23 11:51:44;;;;;;;4.63;1.20;;;19.70;55.20;;;;;;5011390;28;20191;-70
2023/04/23 11:54:12;;;;;;;2.33;1.10;;;19.70;55.00;;;;;;5008093;28;20193;-71
2023/04/23 11:56:39;;;;;;;2.65;1.20;;;19.70;55.10;;;;;;5010572;28;20306;-70
2023/04/23 11:59:05;;;;;;;1.55;1.02;;;19.70;55.00;;;;;;5013367;28;20207;-71
2023/04/23 12:01:46;;;;;;;2.08;1.27;;;19.70;55.10;;;;;;5007820;28;20188;-71
2023/04/23 12:04:20;;;;;;;1.15;0.93;;;19.70;55.20;;;;;;5013148;28;20176;-70
2023/04/23 12:06:48;;;;;;;1.73;1.00;;;19.70;55.20;;;;;;4998370;28;20208;-70
2023/04/23 12:09:17;;;;;;;1.10;1.00;;;19.80;55.20;;;;;;4997483;28;20287;-71
2023/04/23 12:11:44;;;;;;;1.10;1.10;;;19.70;55.10;;;;;;5013422;28;20231;-70
2023/04/23 12:14:13;;;;;;;1.10;1.08;;;19.70;55.20;;;;;;4991368;28;20181;-71
2023/04/23 12:16:42;;;;;;;1.85;0.90;;;19.70;55.20;;;;;;4993286;28;20282;-71
2023/04/23 12:19:19;;;;;;;1.20;1.10;;;19.70;55.20;;;;;;4999521;28;20196;-71
2023/04/23 12:22:01;;;;;;;2.17;1.10;;;19.70;55.20;;;;;;5013144;28;20172;-70
2023/04/23 12:24:30;;;;;;;1.70;1.05;;;19.80;55.20;;;;;;5013134;28;20184;-71
2023/04/23 12:27:01;;;;;;;2.50;1.10;;;19.70;55.10;;;;;;5006154;28;20694;-71
2023/04/23 12:29:30;;;;;;;1.17;1.10;;;19.70;55.10;;;;;;5010901;28;20285;-71
2023/04/23 12:31:59;;;;;;;2.15;1.13;;;19.70;55.00;;;;;;4976876;28;20185;-71
2023/04/23 12:34:24;;;;;;;1.52;0.88;;;19.70;55.00;;;;;;4992913;28;20191;-71
2023/04/23 12:36:54;;;;;;;1.08;1.00;;;19.80;55.10;;;;;;5003468;28;20208;-71
2023/04/23 12:39:34;;;;;;;1.98;1.20;;;19.80;55.20;;;;;;5006205;28;20184;-70
2023/04/23 12:42:05;;;;;;;1.05;0.95;;;19.70;55.10;;;;;;4998553;28;20184;-71
2023/04/23 12:44:34;;;;;;;1.27;1.00;;;19.70;55.10;;;;;;5008813;28;20234;-70
2023/04/23 12:47:18;;;;;;;0.85;0.85;;;19.80;55.20;;;;;;4995869;28;20696;-70
2023/04/23 12:49:44;;;;;;;1.48;0.98;;;19.70;55.10;;;;;;5012465;28;20179;-70
2023/04/23 12:52:11;;;;;;;0.90;0.90;;;19.70;55.10;;;;;;5028630;28;20219;-71